sensor_id;sensor_type;location;lat;lon;timestamp;P1;durP1;ratioP1;P2;durP2;ratioP2
66421;SDS011;53228;51.380;0.098;2023-07-31T00:00:48;2.28;;;0.80;;
66421;SDS011;53228;51.380;0.098;2023-07-31T00:03:16;1.95;;;1.15;;
66421;SDS011;53228;51.380;0.098;2023-07-31T00:05:44;2.63;;;0.82;;
66421;SDS011;53228;51.380;0.098;2023-07-31T00:08:11;2.42;;;1.02;;
66421;SDS011;53228;51.380;0.098;2023-07-31T00:10:39;5.15;;;1.13;;
66421;SDS011;53228;51.380;0.098;2023-07-31T00:13:07;1.85;;;0.70;;
66421;SDS011;53228;51.380;0.098;2023-07-31T00:15:34;1.05;;;0.80;;
66421;SDS011;53228;51.380;0.098;2023-07-31T00:18:02;1.33;;;0.90;;
66421;SDS011;53228;51.380;0.098;2023-07-31T00:20:30;1.65;;;0.73;;
66421;SDS011;53228;51.380;0.098;2023-07-31T00:22:57;1.88;;;0.73;;
66421;SDS011;53228;51.380;0.098;2023-07-31T00:25:25;1.48;;;0.60;;
66421;SDS011;53228;51.380;0.098;2023-07-31T00:27:52;2.13;;;1.10;;
66421;SDS011;53228;51.380;0.098;2023-07-31T00:30:20;1.10;;;0.80;;
66421;SDS011;53228;51.380;0.098;2023-07-31T00:32:49;1.83;;;1.15;;
66421;SDS011;53228;51.380;0.098;2023-07-31T00:35:17;3.15;;;1.00;;
66421;SDS011;53228;51.380;0.098;2023-07-31T00:37:44;3.70;;;1.27;;
66421;SDS011;53228;51.380;0.098;2023-07-31T00:40:12;1.63;;;1.08;;
66421;SDS011;53228;51.380;0.098;2023-07-31T00:42:40;1.40;;;0.88;;
66421;SDS011;53228;51.380;0.098;2023-07-31T00:45:08;2.80;;;1.02;;
66421;SDS011;53228;51.380;0.098;2023-07-31T00:47:36;1.77;;;0.98;;
66421;SDS011;53228;51.380;0.098;2023-07-31T00:50:04;2.17;;;1.05;;
66421;SDS011;53228;51.380;0.098;2023-07-31T00:52:32;2.40;;;1.13;;
66421;SDS011;53228;51.380;0.098;2023-07-31T00:55:00;1.50;;;1.20;;
66421;SDS011;53228;51.380;0.098;2023-07-31T00:57:30;5.45;;;1.20;;
66421;SDS011;53228;51.380;0.098;2023-07-31T00:59:59;3.75;;;1.17;;
66421;SDS011;53228;51.380;0.098;2023-07-31T01:02:28;3.10;;;0.88;;
66421;SDS011;53228;51.380;0.098;2023-07-31T01:04:56;2.55;;;1.02;;
66421;SDS011;53228;51.380;0.098;2023-07-31T01:07:27;1.98;;;1.30;;
66421;SDS011;53228;51.380;0.098;2023-07-31T01:10:04;3.88;;;1.33;;
66421;SDS011;53228;51.380;0.098;2023-07-31T01:12:35;1.58;;;1.10;;
66421;SDS011;53228;51.380;0.098;2023-07-31T01:15:06;1.65;;;1.00;;
66421;SDS011;53228;51.380;0.098;2023-07-31T01:17:38;1.30;;;1.08;;
66421;SDS011;53228;51.380;0.098;2023-07-31T01:20:22;2.22;;;1.20;;
66421;SDS011;53228;51.380;0.098;2023-07-31T01:27:59;1.60;;;0.95;;
66421;SDS011;53228;51.380;0.098;2023-07-31T01:30:31;1.05;;;0.80;;
66421;SDS011;53228;51.380;0.098;2023-07-31T01:33:02;1.83;;;0.80;;
66421;SDS011;53228;51.380;0.098;2023-07-31T01:35:34;0.70;;;0.70;;
66421;SDS011;53228;51.380;0.098;2023-07-31T01:38:04;1.02;;;0.90;;
66421;SDS011;53228;51.380;0.098;2023-07-31T01:40:33;1.20;;;0.80;;
66421;SDS011;53228;51.380;0.098;2023-07-31T01:43:02;1.13;;;0.60;;
66421;SDS011;53228;51.380;0.098;2023-07-31T01:45:30;0.60;;;0.60;;
66421;SDS011;53228;51.380;0.098;2023-07-31T01:47:57;0.88;;;0.70;;
66421;SDS011;53228;51.380;0.098;2023-07-31T01:50:26;1.50;;;0.60;;
66421;SDS011;53228;51.380;0.098;2023-07-31T01:52:54;0.63;;;0.60;;
66421;SDS011;53228;51.380;0.098;2023-07-31T01:55:21;0.55;;;0.55;;
66421;SDS011;53228;51.380;0.098;2023-07-31T01:57:49;0.50;;;0.50;;
66421;SDS011;53228;51.380;0.098;2023-07-31T02:00:17;0.80;;;0.63;;
66421;SDS011;53228;51.380;0.098;2023-07-31T02:02:45;0.80;;;0.77;;
66421;SDS011;53228;51.380;0.098;2023-07-31T02:05:13;1.90;;;0.60;;
66421;SDS011;53228;51.380;0.098;2023-07-31T02:07:42;0.32;;;0.32;;
66421;SDS011;53228;51.380;0.098;2023-07-31T02:10:10;0.65;;;0.60;;
66421;SDS011;53228;51.380;0.098;2023-07-31T02:12:38;3.90;;;0.50;;
66421;SDS011;53228;51.380;0.098;2023-07-31T02:15:06;2.67;;;0.52;;
66421;SDS011;53228;51.380;0.098;2023-07-31T02:17:35;1.63;;;0.40;;
66421;SDS011;53228;51.380;0.098;2023-07-31T02:20:03;0.43;;;0.35;;
66421;SDS011;53228;51.380;0.098;2023-07-31T02:22:31;0.40;;;0.40;;
66421;SDS011;53228;51.380;0.098;2023-07-31T02:24:59;1.48;;;0.43;;
66421;SDS011;53228;51.380;0.098;2023-07-31T02:27:27;0.85;;;0.38;;
66421;SDS011;53228;51.380;0.098;2023-07-31T02:29:55;0.30;;;0.30;;
66421;SDS011;53228;51.380;0.098;2023-07-31T02:32:26;0.65;;;0.30;;
66421;SDS011;53228;51.380;0.098;2023-07-31T02:34:54;0.30;;;0.20;;
66421;SDS011;53228;51.380;0.098;2023-07-31T02:37:22;0.30;;;0.30;;
66421;SDS011;53228;51.380;0.098;2023-07-31T02:39:50;1.48;;;0.40;;
66421;SDS011;53228;51.380;0.098;2023-07-31T02:42:19;0.85;;;0.22;;
66421;SDS011;53228;51.380;0.098;2023-07-31T02:44:47;0.20;;;0.15;;
66421;SDS011;53228;51.380;0.098;2023-07-31T02:47:15;0.47;;;0.20;;
66421;SDS011;53228;51.380;0.098;2023-07-31T02:49:44;0.82;;;0.70;;
66421;SDS011;53228;51.380;0.098;2023-07-31T02:52:12;1.33;;;0.40;;
66421;SDS011;53228;51.380;0.098;2023-07-31T02:54:40;1.38;;;0.40;;
66421;SDS011;53228;51.380;0.098;2023-07-31T02:57:07;0.40;;;0.40;;
66421;SDS011;53228;51.380;0.098;2023-07-31T02:59:35;1.25;;;0.40;;
66421;SDS011;53228;51.380;0.098;2023-07-31T03:02:03;0.90;;;0.40;;
66421;SDS011;53228;51.380;0.098;2023-07-31T03:04:31;0.95;;;0.32;;
66421;SDS011;53228;51.380;0.098;2023-07-31T03:06:59;2.35;;;0.52;;
66421;SDS011;53228;51.380;0.098;2023-07-31T03:09:27;1.73;;;0.70;;
66421;SDS011;53228;51.380;0.098;2023-07-31T03:11:55;2.65;;;0.50;;
66421;SDS011;53228;51.380;0.098;2023-07-31T03:14:23;3.15;;;0.60;;
66421;SDS011;53228;51.380;0.098;2023-07-31T03:16:53;1.02;;;0.50;;
66421;SDS011;53228;51.380;0.098;2023-07-31T03:19:21;1.67;;;0.80;;
66421;SDS011;53228;51.380;0.098;2023-07-31T03:21:49;0.85;;;0.50;;
66421;SDS011;53228;51.380;0.098;2023-07-31T03:24:17;1.77;;;0.70;;
66421;SDS011;53228;51.380;0.098;2023-07-31T03:26:45;1.33;;;0.93;;
66421;SDS011;53228;51.380;0.098;2023-07-31T03:29:13;2.40;;;0.90;;
66421;SDS011;53228;51.380;0.098;2023-07-31T03:31:41;3.63;;;1.20;;
66421;SDS011;53228;51.380;0.098;2023-07-31T03:34:09;2.13;;;1.20;;
66421;SDS011;53228;51.380;0.098;2023-07-31T03:36:37;5.38;;;1.40;;
66421;SDS011;53228;51.380;0.098;2023-07-31T03:39:05;2.08;;;1.25;;
66421;SDS011;53228;51.380;0.098;2023-07-31T03:41:33;3.05;;;1.20;;
66421;SDS011;53228;51.380;0.098;2023-07-31T03:44:02;6.40;;;1.05;;
66421;SDS011;53228;51.380;0.098;2023-07-31T03:46:30;4.15;;;1.55;;
66421;SDS011;53228;51.380;0.098;2023-07-31T03:48:58;3.05;;;1.10;;
66421;SDS011;53228;51.380;0.098;2023-07-31T03:51:27;3.22;;;1.52;;
66421;SDS011;53228;51.380;0.098;2023-07-31T03:53:55;3.55;;;1.63;;
66421;SDS011;53228;51.380;0.098;2023-07-31T03:56:22;8.60;;;1.70;;
66421;SDS011;53228;51.380;0.098;2023-07-31T03:58:50;6.90;;;2.10;;
66421;SDS011;53228;51.380;0.098;2023-07-31T04:01:19;4.97;;;2.00;;
66421;SDS011;53228;51.380;0.098;2023-07-31T04:03:47;5.35;;;1.90;;
66421;SDS011;53228;51.380;0.098;2023-07-31T04:06:15;5.97;;;2.08;;
66421;SDS011;53228;51.380;0.098;2023-07-31T04:08:46;4.57;;;2.10;;
66421;SDS011;53228;51.380;0.098;2023-07-31T04:11:14;5.28;;;2.00;;
66421;SDS011;53228;51.380;0.098;2023-07-31T04:13:42;6.93;;;2.47;;
66421;SDS011;53228;51.380;0.098;2023-07-31T04:16:10;6.70;;;2.25;;
66421;SDS011;53228;51.380;0.098;2023-07-31T04:18:38;6.13;;;2.03;;
66421;SDS011;53228;51.380;0.098;2023-07-31T04:21:06;8.30;;;2.53;;
66421;SDS011;53228;51.380;0.098;2023-07-31T04:23:34;6.63;;;1.83;;
66421;SDS011;53228;51.380;0.098;2023-07-31T04:26:01;6.35;;;2.47;;
66421;SDS011;53228;51.380;0.098;2023-07-31T04:28:29;10.07;;;2.60;;
66421;SDS011;53228;51.380;0.098;2023-07-31T04:30:59;9.93;;;3.08;;
66421;SDS011;53228;51.380;0.098;2023-07-31T04:33:27;12.50;;;3.55;;
66421;SDS011;53228;51.380;0.098;2023-07-31T04:35:55;7.15;;;3.08;;
66421;SDS011;53228;51.380;0.098;2023-07-31T04:38:23;8.15;;;3.17;;
66421;SDS011;53228;51.380;0.098;2023-07-31T04:40:51;14.02;;;3.15;;
66421;SDS011;53228;51.380;0.098;2023-07-31T04:43:18;11.55;;;3.30;;
66421;SDS011;53228;51.380;0.098;2023-07-31T04:45:46;9.30;;;3.42;;
66421;SDS011;53228;51.380;0.098;2023-07-31T04:48:15;11.30;;;3.72;;
66421;SDS011;53228;51.380;0.098;2023-07-31T04:50:43;10.32;;;3.45;;
66421;SDS011;53228;51.380;0.098;2023-07-31T04:53:11;10.90;;;4.22;;
66421;SDS011;53228;51.380;0.098;2023-07-31T04:55:39;11.23;;;3.95;;
66421;SDS011;53228;51.380;0.098;2023-07-31T04:58:06;13.85;;;4.88;;
66421;SDS011;53228;51.380;0.098;2023-07-31T05:00:34;11.30;;;3.70;;
66421;SDS011;53228;51.380;0.098;2023-07-31T05:03:02;11.73;;;4.13;;
66421;SDS011;53228;51.380;0.098;2023-07-31T05:05:30;11.90;;;3.40;;
66421;SDS011;53228;51.380;0.098;2023-07-31T05:07:58;11.73;;;4.30;;
66421;SDS011;53228;51.380;0.098;2023-07-31T05:10:26;13.77;;;3.88;;
66421;SDS011;53228;51.380;0.098;2023-07-31T05:12:54;10.57;;;2.85;;
66421;SDS011;53228;51.380;0.098;2023-07-31T05:15:22;14.02;;;3.80;;
66421;SDS011;53228;51.380;0.098;2023-07-31T05:17:50;14.00;;;3.80;;
66421;SDS011;53228;51.380;0.098;2023-07-31T05:20:18;14.85;;;4.07;;
66421;SDS011;53228;51.380;0.098;2023-07-31T05:22:46;9.32;;;2.97;;
66421;SDS011;53228;51.380;0.098;2023-07-31T05:25:14;13.90;;;3.67;;
66421;SDS011;53228;51.380;0.098;2023-07-31T05:27:42;10.18;;;3.55;;
66421;SDS011;53228;51.380;0.098;2023-07-31T05:30:10;11.57;;;3.80;;
66421;SDS011;53228;51.380;0.098;2023-07-31T05:32:38;10.85;;;3.85;;
66421;SDS011;53228;51.380;0.098;2023-07-31T05:35:06;11.77;;;3.65;;
66421;SDS011;53228;51.380;0.098;2023-07-31T05:37:34;10.98;;;3.40;;
66421;SDS011;53228;51.380;0.098;2023-07-31T05:40:02;10.43;;;3.58;;
66421;SDS011;53228;51.380;0.098;2023-07-31T05:42:30;16.08;;;4.22;;
66421;SDS011;53228;51.380;0.098;2023-07-31T05:44:58;8.20;;;3.40;;
66421;SDS011;53228;51.380;0.098;2023-07-31T05:47:26;7.60;;;3.67;;
66421;SDS011;53228;51.380;0.098;2023-07-31T05:49:54;12.77;;;3.67;;
66421;SDS011;53228;51.380;0.098;2023-07-31T05:52:22;11.02;;;3.42;;
66421;SDS011;53228;51.380;0.098;2023-07-31T05:54:50;13.38;;;3.97;;
66421;SDS011;53228;51.380;0.098;2023-07-31T05:57:18;13.25;;;3.90;;
66421;SDS011;53228;51.380;0.098;2023-07-31T05:59:46;14.25;;;4.15;;
66421;SDS011;53228;51.380;0.098;2023-07-31T06:02:14;12.45;;;3.67;;
66421;SDS011;53228;51.380;0.098;2023-07-31T06:04:42;11.18;;;3.13;;
66421;SDS011;53228;51.380;0.098;2023-07-31T06:07:10;12.50;;;4.07;;
66421;SDS011;53228;51.380;0.098;2023-07-31T06:09:38;10.85;;;4.05;;
66421;SDS011;53228;51.380;0.098;2023-07-31T06:12:06;12.75;;;3.35;;
66421;SDS011;53228;51.380;0.098;2023-07-31T06:14:34;11.45;;;3.53;;
66421;SDS011;53228;51.380;0.098;2023-07-31T06:17:02;11.00;;;3.42;;
66421;SDS011;53228;51.380;0.098;2023-07-31T06:19:30;9.55;;;3.45;;
66421;SDS011;53228;51.380;0.098;2023-07-31T06:21:58;10.82;;;3.78;;
66421;SDS011;53228;51.380;0.098;2023-07-31T06:24:27;10.38;;;3.50;;
66421;SDS011;53228;51.380;0.098;2023-07-31T06:26:55;8.82;;;3.47;;
66421;SDS011;53228;51.380;0.098;2023-07-31T06:29:24;7.90;;;3.15;;
66421;SDS011;53228;51.380;0.098;2023-07-31T06:31:52;11.00;;;3.10;;
66421;SDS011;53228;51.380;0.098;2023-07-31T06:34:20;8.20;;;3.50;;
66421;SDS011;53228;51.380;0.098;2023-07-31T06:36:48;7.80;;;3.28;;
66421;SDS011;53228;51.380;0.098;2023-07-31T06:39:16;10.55;;;3.53;;
66421;SDS011;53228;51.380;0.098;2023-07-31T06:41:44;12.63;;;4.00;;
66421;SDS011;53228;51.380;0.098;2023-07-31T06:44:12;10.27;;;3.55;;
66421;SDS011;53228;51.380;0.098;2023-07-31T06:46:40;9.70;;;3.35;;
66421;SDS011;53228;51.380;0.098;2023-07-31T06:49:08;14.15;;;3.35;;
66421;SDS011;53228;51.380;0.098;2023-07-31T06:51:36;11.60;;;3.95;;
66421;SDS011;53228;51.380;0.098;2023-07-31T06:54:05;7.40;;;3.13;;
66421;SDS011;53228;51.380;0.098;2023-07-31T06:56:33;7.82;;;2.95;;
66421;SDS011;53228;51.380;0.098;2023-07-31T06:59:03;10.50;;;3.35;;
66421;SDS011;53228;51.380;0.098;2023-07-31T07:01:30;11.23;;;3.35;;
66421;SDS011;53228;51.380;0.098;2023-07-31T07:03:58;13.65;;;3.80;;
66421;SDS011;53228;51.380;0.098;2023-07-31T07:06:26;7.72;;;3.10;;
66421;SDS011;53228;51.380;0.098;2023-07-31T07:08:54;7.40;;;2.70;;
66421;SDS011;53228;51.380;0.098;2023-07-31T07:11:22;8.23;;;3.00;;
66421;SDS011;53228;51.380;0.098;2023-07-31T07:13:50;8.27;;;3.60;;
66421;SDS011;53228;51.380;0.098;2023-07-31T07:16:19;9.00;;;2.78;;
66421;SDS011;53228;51.380;0.098;2023-07-31T07:18:47;8.95;;;2.88;;
66421;SDS011;53228;51.380;0.098;2023-07-31T07:21:30;10.98;;;3.25;;
66421;SDS011;53228;51.380;0.098;2023-07-31T07:23:58;6.70;;;2.55;;
66421;SDS011;53228;51.380;0.098;2023-07-31T07:26:26;6.95;;;2.65;;
66421;SDS011;53228;51.380;0.098;2023-07-31T07:28:54;12.43;;;3.00;;
66421;SDS011;53228;51.380;0.098;2023-07-31T07:31:22;7.78;;;2.50;;
66421;SDS011;53228;51.380;0.098;2023-07-31T07:33:50;5.95;;;2.03;;
66421;SDS011;53228;51.380;0.098;2023-07-31T07:36:18;3.97;;;2.50;;
66421;SDS011;53228;51.380;0.098;2023-07-31T07:38:46;7.45;;;2.30;;
66421;SDS011;53228;51.380;0.098;2023-07-31T07:41:14;6.45;;;2.20;;
66421;SDS011;53228;51.380;0.098;2023-07-31T07:43:42;4.68;;;1.95;;
66421;SDS011;53228;51.380;0.098;2023-07-31T07:46:09;6.10;;;2.13;;
66421;SDS011;53228;51.380;0.098;2023-07-31T07:48:37;20.83;;;8.85;;
66421;SDS011;53228;51.380;0.098;2023-07-31T07:51:05;8.90;;;2.40;;
66421;SDS011;53228;51.380;0.098;2023-07-31T07:53:33;6.97;;;2.92;;
66421;SDS011;53228;51.380;0.098;2023-07-31T07:56:01;6.03;;;2.35;;
66421;SDS011;53228;51.380;0.098;2023-07-31T07:58:29;4.20;;;2.13;;
66421;SDS011;53228;51.380;0.098;2023-07-31T08:00:57;8.57;;;1.90;;
66421;SDS011;53228;51.380;0.098;2023-07-31T08:03:25;5.43;;;2.33;;
66421;SDS011;53228;51.380;0.098;2023-07-31T08:05:57;5.60;;;1.77;;
66421;SDS011;53228;51.380;0.098;2023-07-31T08:08:25;10.50;;;2.67;;
66421;SDS011;53228;51.380;0.098;2023-07-31T08:10:53;5.40;;;1.63;;
66421;SDS011;53228;51.380;0.098;2023-07-31T08:13:21;6.43;;;2.25;;
66421;SDS011;53228;51.380;0.098;2023-07-31T08:15:49;8.30;;;2.22;;
66421;SDS011;53228;51.380;0.098;2023-07-31T08:18:17;7.60;;;2.33;;
66421;SDS011;53228;51.380;0.098;2023-07-31T08:20:45;4.78;;;1.60;;
66421;SDS011;53228;51.380;0.098;2023-07-31T08:23:13;4.65;;;2.10;;
66421;SDS011;53228;51.380;0.098;2023-07-31T08:25:41;4.57;;;2.22;;
66421;SDS011;53228;51.380;0.098;2023-07-31T08:28:09;5.65;;;2.40;;
66421;SDS011;53228;51.380;0.098;2023-07-31T08:30:37;5.68;;;2.13;;
66421;SDS011;53228;51.380;0.098;2023-07-31T08:33:05;4.00;;;2.15;;
66421;SDS011;53228;51.380;0.098;2023-07-31T08:35:33;6.70;;;2.28;;
66421;SDS011;53228;51.380;0.098;2023-07-31T08:38:01;9.55;;;2.30;;
66421;SDS011;53228;51.380;0.098;2023-07-31T08:40:29;6.95;;;1.95;;
66421;SDS011;53228;51.380;0.098;2023-07-31T08:42:57;6.80;;;2.20;;
66421;SDS011;53228;51.380;0.098;2023-07-31T08:45:29;4.60;;;2.03;;
66421;SDS011;53228;51.380;0.098;2023-07-31T08:47:57;7.00;;;2.20;;
66421;SDS011;53228;51.380;0.098;2023-07-31T08:50:26;5.40;;;2.15;;
66421;SDS011;53228;51.380;0.098;2023-07-31T08:52:55;8.50;;;1.90;;
66421;SDS011;53228;51.380;0.098;2023-07-31T08:55:24;6.50;;;2.47;;
66421;SDS011;53228;51.380;0.098;2023-07-31T08:57:52;4.55;;;2.15;;
66421;SDS011;53228;51.380;0.098;2023-07-31T09:00:21;8.00;;;1.98;;
66421;SDS011;53228;51.380;0.098;2023-07-31T09:02:56;5.40;;;1.67;;
66421;SDS011;53228;51.380;0.098;2023-07-31T09:05:26;5.57;;;2.03;;
66421;SDS011;53228;51.380;0.098;2023-07-31T09:07:54;6.40;;;2.38;;
66421;SDS011;53228;51.380;0.098;2023-07-31T09:10:23;4.22;;;1.80;;
66421;SDS011;53228;51.380;0.098;2023-07-31T09:12:51;5.95;;;2.05;;
66421;SDS011;53228;51.380;0.098;2023-07-31T09:15:19;6.35;;;1.67;;
66421;SDS011;53228;51.380;0.098;2023-07-31T09:18:03;4.07;;;1.70;;
66421;SDS011;53228;51.380;0.098;2023-07-31T09:20:32;4.75;;;1.98;;
66421;SDS011;53228;51.380;0.098;2023-07-31T09:23:11;4.85;;;1.80;;
66421;SDS011;53228;51.380;0.098;2023-07-31T09:25:40;4.80;;;1.70;;
66421;SDS011;53228;51.380;0.098;2023-07-31T09:28:10;7.65;;;1.75;;
66421;SDS011;53228;51.380;0.098;2023-07-31T09:30:46;6.05;;;1.55;;
66421;SDS011;53228;51.380;0.098;2023-07-31T09:33:14;5.78;;;1.92;;
66421;SDS011;53228;51.380;0.098;2023-07-31T09:35:42;6.18;;;1.88;;
66421;SDS011;53228;51.380;0.098;2023-07-31T09:38:11;4.78;;;1.60;;
66421;SDS011;53228;51.380;0.098;2023-07-31T09:40:44;5.63;;;1.42;;
66421;SDS011;53228;51.380;0.098;2023-07-31T09:43:19;4.60;;;1.40;;
66421;SDS011;53228;51.380;0.098;2023-07-31T09:45:47;6.45;;;1.92;;
66421;SDS011;53228;51.380;0.098;2023-07-31T09:48:16;6.45;;;1.65;;
66421;SDS011;53228;51.380;0.098;2023-07-31T09:50:45;4.88;;;1.58;;
66421;SDS011;53228;51.380;0.098;2023-07-31T09:53:14;6.57;;;2.13;;
66421;SDS011;53228;51.380;0.098;2023-07-31T09:55:42;6.70;;;1.80;;
66421;SDS011;53228;51.380;0.098;2023-07-31T09:58:11;9.90;;;1.83;;
66421;SDS011;53228;51.380;0.098;2023-07-31T10:00:40;6.30;;;1.90;;
66421;SDS011;53228;51.380;0.098;2023-07-31T10:03:08;5.93;;;1.98;;
66421;SDS011;53228;51.380;0.098;2023-07-31T10:05:42;7.47;;;1.88;;
66421;SDS011;53228;51.380;0.098;2023-07-31T10:08:10;5.43;;;1.80;;
66421;SDS011;53228;51.380;0.098;2023-07-31T10:10:41;5.70;;;1.67;;
66421;SDS011;53228;51.380;0.098;2023-07-31T10:13:09;4.68;;;1.90;;
66421;SDS011;53228;51.380;0.098;2023-07-31T10:15:37;3.72;;;1.60;;
66421;SDS011;53228;51.380;0.098;2023-07-31T10:18:06;4.32;;;1.75;;
66421;SDS011;53228;51.380;0.098;2023-07-31T10:20:34;6.47;;;1.98;;
66421;SDS011;53228;51.380;0.098;2023-07-31T10:23:03;6.25;;;2.40;;
66421;SDS011;53228;51.380;0.098;2023-07-31T10:25:31;7.20;;;2.38;;
66421;SDS011;53228;51.380;0.098;2023-07-31T10:27:59;5.22;;;1.77;;
66421;SDS011;53228;51.380;0.098;2023-07-31T10:30:29;2.97;;;1.73;;
66421;SDS011;53228;51.380;0.098;2023-07-31T10:32:58;6.20;;;2.17;;
66421;SDS011;53228;51.380;0.098;2023-07-31T10:35:27;5.43;;;1.90;;
66421;SDS011;53228;51.380;0.098;2023-07-31T10:37:55;5.53;;;2.38;;
66421;SDS011;53228;51.380;0.098;2023-07-31T10:40:26;11.00;;;2.42;;
66421;SDS011;53228;51.380;0.098;2023-07-31T10:42:55;4.22;;;2.08;;
66421;SDS011;53228;51.380;0.098;2023-07-31T10:45:36;6.95;;;2.05;;
66421;SDS011;53228;51.380;0.098;2023-07-31T10:48:05;6.43;;;1.98;;
66421;SDS011;53228;51.380;0.098;2023-07-31T10:50:38;10.00;;;2.40;;
66421;SDS011;53228;51.380;0.098;2023-07-31T10:53:06;6.78;;;1.85;;
66421;SDS011;53228;51.380;0.098;2023-07-31T10:58:19;8.13;;;2.15;;
66421;SDS011;53228;51.380;0.098;2023-07-31T11:00:50;6.30;;;2.05;;
66421;SDS011;53228;51.380;0.098;2023-07-31T11:03:25;8.68;;;3.15;;
66421;SDS011;53228;51.380;0.098;2023-07-31T11:06:02;6.43;;;1.77;;
66421;SDS011;53228;51.380;0.098;2023-07-31T11:08:34;8.32;;;3.10;;
66421;SDS011;53228;51.380;0.098;2023-07-31T11:13:47;7.28;;;2.38;;
66421;SDS011;53228;51.380;0.098;2023-07-31T11:16:24;6.63;;;2.40;;
66421;SDS011;53228;51.380;0.098;2023-07-31T11:18:53;10.32;;;2.70;;
66421;SDS011;53228;51.380;0.098;2023-07-31T11:23:51;9.98;;;2.60;;
66421;SDS011;53228;51.380;0.098;2023-07-31T11:26:20;10.15;;;2.80;;
66421;SDS011;53228;51.380;0.098;2023-07-31T11:28:48;7.40;;;2.53;;
66421;SDS011;53228;51.380;0.098;2023-07-31T11:31:16;9.35;;;3.28;;
66421;SDS011;53228;51.380;0.098;2023-07-31T11:33:48;10.30;;;2.88;;
66421;SDS011;53228;51.380;0.098;2023-07-31T11:36:20;5.72;;;2.42;;
66421;SDS011;53228;51.380;0.098;2023-07-31T11:38:51;10.75;;;2.47;;
66421;SDS011;53228;51.380;0.098;2023-07-31T11:41:22;10.85;;;2.47;;
66421;SDS011;53228;51.380;0.098;2023-07-31T11:43:51;7.32;;;2.42;;
66421;SDS011;53228;51.380;0.098;2023-07-31T11:46:43;10.25;;;3.28;;
66421;SDS011;53228;51.380;0.098;2023-07-31T11:49:11;8.75;;;2.58;;
66421;SDS011;53228;51.380;0.098;2023-07-31T11:51:39;6.65;;;2.60;;
66421;SDS011;53228;51.380;0.098;2023-07-31T11:54:07;8.07;;;2.88;;
66421;SDS011;53228;51.380;0.098;2023-07-31T11:56:35;8.10;;;2.65;;
66421;SDS011;53228;51.380;0.098;2023-07-31T11:59:04;7.22;;;2.40;;
66421;SDS011;53228;51.380;0.098;2023-07-31T12:01:35;8.30;;;2.45;;
66421;SDS011;53228;51.380;0.098;2023-07-31T12:04:03;13.45;;;2.58;;
66421;SDS011;53228;51.380;0.098;2023-07-31T12:06:32;10.55;;;3.50;;
66421;SDS011;53228;51.380;0.098;2023-07-31T12:09:04;6.85;;;2.30;;
66421;SDS011;53228;51.380;0.098;2023-07-31T12:11:42;5.65;;;2.22;;
66421;SDS011;53228;51.380;0.098;2023-07-31T12:16:52;7.80;;;2.80;;
66421;SDS011;53228;51.380;0.098;2023-07-31T12:19:21;9.15;;;2.72;;
66421;SDS011;53228;51.380;0.098;2023-07-31T12:21:49;10.20;;;2.50;;
66421;SDS011;53228;51.380;0.098;2023-07-31T12:24:18;8.55;;;2.58;;
66421;SDS011;53228;51.380;0.098;2023-07-31T12:26:46;13.23;;;2.67;;
66421;SDS011;53228;51.380;0.098;2023-07-31T12:29:15;10.30;;;2.55;;
66421;SDS011;53228;51.380;0.098;2023-07-31T12:31:43;8.15;;;2.30;;
66421;SDS011;53228;51.380;0.098;2023-07-31T12:34:17;6.20;;;2.45;;
66421;SDS011;53228;51.380;0.098;2023-07-31T12:36:45;10.27;;;2.63;;
66421;SDS011;53228;51.380;0.098;2023-07-31T12:39:15;7.78;;;2.58;;
66421;SDS011;53228;51.380;0.098;2023-07-31T12:41:43;9.15;;;2.30;;
66421;SDS011;53228;51.380;0.098;2023-07-31T12:44:11;12.07;;;2.85;;
66421;SDS011;53228;51.380;0.098;2023-07-31T12:46:39;6.68;;;2.28;;
66421;SDS011;53228;51.380;0.098;2023-07-31T12:49:07;8.70;;;2.50;;
66421;SDS011;53228;51.380;0.098;2023-07-31T12:51:36;13.00;;;3.03;;
66421;SDS011;53228;51.380;0.098;2023-07-31T12:54:04;12.15;;;3.22;;
66421;SDS011;53228;51.380;0.098;2023-07-31T12:56:33;13.00;;;3.63;;
66421;SDS011;53228;51.380;0.098;2023-07-31T12:59:01;10.15;;;2.63;;
66421;SDS011;53228;51.380;0.098;2023-07-31T13:01:29;13.98;;;2.38;;
66421;SDS011;53228;51.380;0.098;2023-07-31T13:03:57;8.80;;;2.80;;
66421;SDS011;53228;51.380;0.098;2023-07-31T13:06:25;7.00;;;3.13;;
66421;SDS011;53228;51.380;0.098;2023-07-31T13:08:53;15.55;;;3.88;;
66421;SDS011;53228;51.380;0.098;2023-07-31T13:11:21;11.45;;;2.55;;
66421;SDS011;53228;51.380;0.098;2023-07-31T13:13:49;10.98;;;3.35;;
66421;SDS011;53228;51.380;0.098;2023-07-31T13:16:17;11.52;;;2.78;;
66421;SDS011;53228;51.380;0.098;2023-07-31T13:18:45;10.65;;;2.58;;
66421;SDS011;53228;51.380;0.098;2023-07-31T13:21:13;10.73;;;3.30;;
66421;SDS011;53228;51.380;0.098;2023-07-31T13:23:41;13.48;;;2.75;;
66421;SDS011;53228;51.380;0.098;2023-07-31T13:26:09;8.07;;;2.47;;
66421;SDS011;53228;51.380;0.098;2023-07-31T13:28:37;9.13;;;2.40;;
66421;SDS011;53228;51.380;0.098;2023-07-31T13:31:05;4.88;;;2.40;;
66421;SDS011;53228;51.380;0.098;2023-07-31T13:33:33;7.45;;;2.72;;
66421;SDS011;53228;51.380;0.098;2023-07-31T13:36:04;10.80;;;2.65;;
66421;SDS011;53228;51.380;0.098;2023-07-31T13:38:32;12.00;;;2.60;;
66421;SDS011;53228;51.380;0.098;2023-07-31T13:41:00;10.52;;;2.78;;
66421;SDS011;53228;51.380;0.098;2023-07-31T13:43:28;9.05;;;2.22;;
66421;SDS011;53228;51.380;0.098;2023-07-31T13:45:56;8.70;;;2.97;;
66421;SDS011;53228;51.380;0.098;2023-07-31T13:48:24;15.00;;;2.95;;
66421;SDS011;53228;51.380;0.098;2023-07-31T13:50:52;8.10;;;2.53;;
66421;SDS011;53228;51.380;0.098;2023-07-31T13:53:20;6.88;;;2.33;;
66421;SDS011;53228;51.380;0.098;2023-07-31T13:55:48;13.90;;;2.80;;
66421;SDS011;53228;51.380;0.098;2023-07-31T13:58:17;10.38;;;2.42;;
66421;SDS011;53228;51.380;0.098;2023-07-31T14:00:45;7.97;;;2.42;;
66421;SDS011;53228;51.380;0.098;2023-07-31T14:03:13;8.43;;;2.47;;
66421;SDS011;53228;51.380;0.098;2023-07-31T14:05:41;9.35;;;2.90;;
66421;SDS011;53228;51.380;0.098;2023-07-31T14:08:09;12.60;;;2.47;;
66421;SDS011;53228;51.380;0.098;2023-07-31T14:10:37;8.52;;;2.00;;
66421;SDS011;53228;51.380;0.098;2023-07-31T14:13:05;9.43;;;2.47;;
66421;SDS011;53228;51.380;0.098;2023-07-31T14:15:33;13.20;;;2.83;;
66421;SDS011;53228;51.380;0.098;2023-07-31T14:18:02;7.38;;;2.80;;
66421;SDS011;53228;51.380;0.098;2023-07-31T14:20:31;9.88;;;2.95;;
66421;SDS011;53228;51.380;0.098;2023-07-31T14:22:59;5.50;;;2.42;;
66421;SDS011;53228;51.380;0.098;2023-07-31T14:25:27;5.85;;;2.47;;
66421;SDS011;53228;51.380;0.098;2023-07-31T14:27:55;7.97;;;1.98;;
66421;SDS011;53228;51.380;0.098;2023-07-31T14:30:23;7.80;;;2.78;;
66421;SDS011;53228;51.380;0.098;2023-07-31T14:32:51;7.38;;;2.20;;
66421;SDS011;53228;51.380;0.098;2023-07-31T14:35:19;6.00;;;1.70;;
66421;SDS011;53228;51.380;0.098;2023-07-31T14:37:47;3.00;;;1.92;;
66421;SDS011;53228;51.380;0.098;2023-07-31T14:40:15;5.00;;;2.08;;
66421;SDS011;53228;51.380;0.098;2023-07-31T14:42:43;4.28;;;1.70;;
66421;SDS011;53228;51.380;0.098;2023-07-31T14:45:11;4.72;;;1.80;;
66421;SDS011;53228;51.380;0.098;2023-07-31T14:47:39;7.10;;;1.80;;
66421;SDS011;53228;51.380;0.098;2023-07-31T14:50:07;5.60;;;1.70;;
66421;SDS011;53228;51.380;0.098;2023-07-31T14:52:35;5.32;;;1.73;;
66421;SDS011;53228;51.380;0.098;2023-07-31T14:55:03;4.70;;;1.70;;
66421;SDS011;53228;51.380;0.098;2023-07-31T14:57:31;4.18;;;1.65;;
66421;SDS011;53228;51.380;0.098;2023-07-31T14:59:59;5.43;;;1.65;;
66421;SDS011;53228;51.380;0.098;2023-07-31T15:02:27;5.53;;;2.33;;
66421;SDS011;53228;51.380;0.098;2023-07-31T15:04:55;6.07;;;1.67;;
66421;SDS011;53228;51.380;0.098;2023-07-31T15:07:23;9.05;;;2.20;;
66421;SDS011;53228;51.380;0.098;2023-07-31T15:09:51;7.72;;;2.33;;